Time,TemperatureF,DewpointF,PressureIn,WindDirection,WindDirectionDegrees,WindSpeedMPH,WindSpeedGustMPH,Humidity,HourlyPrecipIn,Conditions,Clouds,dailyrainin,SoftwareType,DateUTC
2013-08-09 00:01:00,70.0,67.0,30.09,SW,222,0.0,0.0,91,0.00,,,0.00,,2013-08-09 04:01:00,
2013-08-09 00:53:00,69.0,67.0,30.11,SW,222,0.0,1.0,92,0.00,,,0.00,,2013-08-09 04:53:00,
2013-08-09 01:02:00,69.0,67.0,30.11,SW,222,0.0,2.0,92,0.00,,,0.00,,2013-08-09 05:02:00,
2013-08-09 01:22:00,69.0,67.0,30.11,SW,222,0.0,1.0,92,0.00,,,0.00,,2013-08-09 05:22:00,
2013-08-09 01:32:00,69.0,66.0,30.10,SW,222,0.0,2.0,91,0.00,,,0.00,,2013-08-09 05:32:00,
2013-08-09 01:43:00,69.0,66.0,30.10,SW,222,0.0,0.0,90,0.00,,,0.00,,2013-08-09 05:43:00,
2013-08-09 01:52:00,69.0,66.0,30.10,SW,222,0.0,0.0,90,0.00,,,0.00,,2013-08-09 05:52:00,
2013-08-09 02:01:00,69.0,67.0,30.10,SW,222,0.0,0.0,92,0.00,,,0.00,,2013-08-09 06:01:00,
2013-08-09 02:32:00,69.0,67.0,30.09,SW,222,0.0,0.0,92,0.00,,,0.00,,2013-08-09 06:32:00,
2013-08-09 02:43:00,69.0,67.0,30.09,SW,222,0.0,0.0,92,0.00,,,0.00,,2013-08-09 06:43:00,
2013-08-09 02:52:00,68.0,66.0,30.10,SW,222,0.0,0.0,92,0.00,,,0.00,,2013-08-09 06:52:00,
2013-08-09 03:01:00,68.0,66.0,30.09,SW,222,0.0,0.0,92,0.00,,,0.00,,2013-08-09 07:01:00,
2013-08-09 03:12:00,68.0,66.0,30.10,SW,222,0.0,1.0,92,0.00,,,0.00,,2013-08-09 07:12:00,
2013-08-09 03:22:00,68.0,66.0,30.10,SW,222,0.0,1.0,93,0.00,,,0.00,,2013-08-09 07:22:00,
2013-08-09 03:33:00,68.0,66.0,30.09,SW,222,0.0,1.0,93,0.00,,,0.00,,2013-08-09 07:33:00,
2013-08-09 03:43:00,68.0,66.0,30.09,SW,222,0.0,1.0,93,0.00,,,0.00,,2013-08-09 07:43:00,
2013-08-09 03:53:00,68.0,66.0,30.09,SW,222,0.0,1.0,94,0.00,,,0.00,,2013-08-09 07:53:00,
2013-08-09 04:02:00,68.0,66.0,30.10,SW,222,0.0,2.0,94,0.00,,,0.00,,2013-08-09 08:02:00,
2013-08-09 04:12:00,68.0,66.0,30.10,SW,222,0.0,0.0,94,0.00,,,0.00,,2013-08-09 08:12:00,
2013-08-09 04:32:00,68.0,66.0,30.09,NNW,337,0.0,2.0,94,0.00,,,0.00,,2013-08-09 08:32:00,
2013-08-09 04:43:00,68.0,66.0,30.09,SSW,213,0.0,2.0,94,0.00,,,0.00,,2013-08-09 08:43:00,
2013-08-09 04:53:00,68.0,66.0,30.09,SSW,213,0.0,0.0,94,0.00,,,0.00,,2013-08-09 08:53:00,
2013-08-09 05:02:00,68.0,66.0,30.09,SSW,213,0.0,0.0,94,0.00,,,0.00,,2013-08-09 09:02:00,
2013-08-09 05:22:00,68.0,66.0,30.09,SW,214,0.0,0.0,94,0.00,,,0.00,,2013-08-09 09:22:00,
2013-08-09 05:32:00,68.0,66.0,30.10,SSW,213,0.0,0.0,94,0.00,,,0.00,,2013-08-09 09:32:00,
2013-08-09 05:52:00,67.0,65.0,30.10,SSW,213,0.0,0.0,93,0.00,,,0.00,,2013-08-09 09:52:00,
2013-08-09 06:01:00,67.0,65.0,30.10,SSW,213,0.0,0.0,94,0.00,,,0.00,,2013-08-09 10:01:00,
2013-08-09 06:12:00,67.0,65.0,30.10,SSW,213,0.0,1.0,94,0.00,,,0.00,,2013-08-09 10:12:00,
2013-08-09 06:22:00,67.0,65.0,30.10,SSW,213,0.0,1.0,94,0.00,,,0.00,,2013-08-09 10:22:00,
2013-08-09 06:32:00,67.0,65.0,30.10,SSW,213,0.0,1.0,94,0.00,,,0.00,,2013-08-09 10:32:00,
2013-08-09 06:43:00,66.0,64.0,30.11,SSW,213,0.0,1.0,94,0.00,,,0.00,,2013-08-09 10:43:00,
2013-08-09 07:02:00,66.0,64.0,30.11,SSW,213,0.0,0.0,94,0.00,,,0.00,,2013-08-09 11:02:00,
2013-08-09 07:53:00,66.0,64.0,30.12,SSW,213,0.0,0.0,94,0.00,,,0.00,,2013-08-09 11:53:00,
2013-08-09 08:02:00,66.0,65.0,30.12,SW,214,0.0,1.0,95,0.00,,,0.00,,2013-08-09 12:02:00,
2013-08-09 08:12:00,66.0,65.0,30.12,SSW,213,0.0,0.0,95,0.00,,,0.00,,2013-08-09 12:12:00,
2013-08-09 08:22:00,66.0,65.0,30.12,SSW,213,0.0,0.0,96,0.00,,,0.00,,2013-08-09 12:22:00,
2013-08-09 08:32:00,66.0,65.0,30.12,SSW,213,0.0,0.0,96,0.00,,,0.00,,2013-08-09 12:32:00,
2013-08-09 08:43:00,66.0,65.0,30.12,SW,214,0.0,0.0,97,0.00,,,0.00,,2013-08-09 12:43:00,
2013-08-09 09:32:00,69.0,68.0,30.13,SSW,213,0.0,1.0,98,0.00,,,0.00,,2013-08-09 13:32:00,
2013-08-09 09:52:00,70.0,69.0,30.13,SW,214,0.0,2.0,98,0.00,,,0.00,,2013-08-09 13:52:00,
2013-08-09 10:02:00,71.0,69.0,30.13,SW,226,0.0,2.0,95,0.00,,,0.00,,2013-08-09 14:02:00,
2013-08-09 10:11:00,71.0,69.0,30.13,SW,226,0.0,2.0,95,0.00,,,0.00,,2013-08-09 14:11:00,
2013-08-09 10:22:00,71.0,69.0,30.13,SW,230,1.0,2.0,93,0.00,,,0.00,,2013-08-09 14:22:00,
2013-08-09 10:33:00,72.0,69.0,30.14,SW,233,0.0,2.0,89,0.00,,,0.00,,2013-08-09 14:33:00,
2013-08-09 10:43:00,73.0,69.0,30.14,West,264,1.0,4.0,88,0.00,,,0.00,,2013-08-09 14:43:00,
2013-08-09 10:53:00,73.0,69.0,30.14,West,264,1.0,4.0,88,0.00,,,0.00,,2013-08-09 14:53:00,
2013-08-09 11:02:00,73.0,69.0,30.14,West,264,1.0,3.0,87,0.00,,,0.00,,2013-08-09 15:02:00,
2013-08-09 11:33:00,74.0,69.0,30.14,WSW,256,0.0,1.0,85,0.00,,,0.00,,2013-08-09 15:33:00,
2013-08-09 12:02:00,75.0,69.0,30.14,WSW,253,0.0,2.0,83,0.00,,,0.00,,2013-08-09 16:02:00,
2013-08-09 12:32:00,76.0,70.0,30.13,SW,224,0.0,5.0,82,0.00,,,0.00,,2013-08-09 16:32:00,
2013-08-09 12:53:00,76.0,69.0,30.13,NW,312,1.0,4.0,79,0.00,,,0.00,,2013-08-09 16:53:00,
2013-08-09 13:02:00,77.0,70.0,30.13,SW,235,0.0,4.0,78,0.00,,,0.00,,2013-08-09 17:02:00,
2013-08-09 13:11:00,77.0,70.0,30.13,SW,236,0.0,2.0,80,0.00,,,0.00,,2013-08-09 17:11:00,
2013-08-09 13:33:00,78.0,70.0,30.12,SW,236,0.0,3.0,77,0.00,,,0.00,,2013-08-09 17:33:00,
2013-08-09 13:52:00,79.0,71.0,30.12,WSW,252,0.0,4.0,76,0.00,,,0.00,,2013-08-09 17:52:00,
2013-08-09 14:01:00,79.0,70.0,30.11,WSW,253,0.0,4.0,75,0.00,,,0.00,,2013-08-09 18:01:00,
2013-08-09 14:11:00,79.0,70.0,30.11,WSW,253,0.0,4.0,75,0.00,,,0.00,,2013-08-09 18:11:00,
2013-08-09 14:22:00,79.0,70.0,30.11,WSW,253,0.0,4.0,75,0.00,,,0.00,,2013-08-09 18:22:00,
2013-08-09 14:32:00,79.0,70.0,30.11,WSW,253,0.0,4.0,75,0.00,,,0.00,,2013-08-09 18:32:00,
2013-08-09 14:43:00,79.0,70.0,30.11,WSW,253,0.0,4.0,75,0.00,,,0.00,,2013-08-09 18:43:00,
2013-08-09 15:22:00,83.0,71.0,30.11,WSW,256,0.0,1.0,68,0.00,,,0.00,,2013-08-09 19:22:00,
2013-08-09 15:32:00,81.0,70.0,30.11,WSW,256,0.0,1.0,69,0.00,,,0.00,,2013-08-09 19:32:00,
2013-08-09 15:43:00,78.0,72.0,30.11,WSW,256,0.0,1.0,81,0.02,,,0.02,,2013-08-09 19:43:00,
2013-08-09 15:52:00,78.0,72.0,30.11,WSW,256,0.0,1.0,81,0.02,,,0.02,,2013-08-09 19:52:00,
2013-08-09 16:02:00,76.0,70.0,30.11,WSW,256,0.0,1.0,83,0.05,,,0.05,,2013-08-09 20:02:00,
2013-08-09 16:11:00,75.0,71.0,30.10,WSW,256,0.0,1.0,87,0.07,,,0.07,,2013-08-09 20:11:00,
2013-08-09 16:22:00,74.0,71.0,30.10,WSW,256,0.0,0.0,90,0.07,,,0.07,,2013-08-09 20:22:00,
2013-08-09 16:32:00,74.0,72.0,30.10,WSW,256,0.0,1.0,92,0.07,,,0.07,,2013-08-09 20:32:00,
2013-08-09 16:43:00,77.0,74.0,30.11,WSW,256,0.0,1.0,92,0.06,,,0.08,,2013-08-09 20:43:00,
2013-08-09 17:12:00,77.0,72.0,30.11,WSW,256,0.0,0.0,86,0.01,,,0.08,,2013-08-09 21:12:00,
2013-08-09 17:22:00,76.0,72.0,30.10,WSW,256,0.0,0.0,88,0.01,,,0.08,,2013-08-09 21:22:00,
2013-08-09 17:33:00,76.0,73.0,30.10,WSW,256,0.0,0.0,89,0.01,,,0.08,,2013-08-09 21:33:00,
2013-08-09 17:43:00,76.0,73.0,30.09,WSW,256,0.0,0.0,90,0.00,,,0.08,,2013-08-09 21:43:00,
2013-08-09 18:02:00,75.0,72.0,30.09,WSW,256,0.0,0.0,90,0.00,,,0.08,,2013-08-09 22:02:00,
2013-08-09 18:11:00,75.0,72.0,30.09,WSW,256,0.0,0.0,89,0.00,,,0.08,,2013-08-09 22:11:00,
2013-08-09 18:22:00,75.0,72.0,30.09,WSW,256,0.0,0.0,89,0.00,,,0.08,,2013-08-09 22:22:00,
2013-08-09 18:42:00,75.0,73.0,30.10,WSW,256,0.0,0.0,92,0.00,,,0.08,,2013-08-09 22:42:00,
2013-08-09 18:52:00,75.0,73.0,30.10,WSW,256,0.0,0.0,92,0.00,,,0.08,,2013-08-09 22:52:00,
2013-08-09 19:02:00,75.0,73.0,30.10,WSW,256,0.0,0.0,92,0.00,,,0.08,,2013-08-09 23:02:00,
2013-08-09 19:32:00,74.0,72.0,30.10,WSW,256,0.0,0.0,92,0.00,,,0.08,,2013-08-09 23:32:00,
2013-08-09 19:52:00,74.0,72.0,30.10,WSW,256,0.0,0.0,92,0.00,,,0.08,,2013-08-09 23:52:00,
2013-08-09 20:01:00,74.0,72.0,30.10,WSW,256,0.0,0.0,93,0.00,,,0.08,,2013-08-10 00:01:00,
2013-08-09 20:33:00,72.0,69.0,30.11,WSW,256,0.0,1.0,91,0.00,,,0.08,,2013-08-10 00:33:00,
2013-08-09 20:43:00,72.0,69.0,30.11,WSW,256,0.0,1.0,91,0.00,,,0.08,,2013-08-10 00:43:00,
2013-08-09 20:52:00,72.0,70.0,30.11,WSW,256,0.0,0.0,93,0.00,,,0.08,,2013-08-10 00:52:00,
2013-08-09 21:01:00,72.0,70.0,30.11,WSW,256,0.0,0.0,93,0.00,,,0.08,,2013-08-10 01:01:00,
2013-08-09 21:11:00,71.0,69.0,30.11,WSW,256,0.0,1.0,93,0.00,,,0.08,,2013-08-10 01:11:00,
2013-08-09 21:22:00,71.0,69.0,30.11,WSW,256,0.0,1.0,93,0.00,,,0.08,,2013-08-10 01:22:00,
2013-08-09 21:32:00,71.0,69.0,30.12,WSW,256,0.0,1.0,93,0.00,,,0.08,,2013-08-10 01:32:00,
2013-08-09 21:42:00,71.0,69.0,30.12,WSW,256,0.0,1.0,93,0.00,,,0.08,,2013-08-10 01:42:00,
2013-08-09 21:52:00,70.0,68.0,30.14,WSW,256,0.0,0.0,94,0.00,,,0.08,,2013-08-10 01:52:00,
2013-08-09 22:03:00,70.0,68.0,30.14,WSW,256,0.0,0.0,94,0.00,,,0.08,,2013-08-10 02:03:00,
2013-08-09 22:11:00,70.0,68.0,30.14,WSW,256,0.0,0.0,94,0.00,,,0.08,,2013-08-10 02:11:00,
2013-08-09 22:21:00,70.0,68.0,30.14,WSW,256,0.0,0.0,94,0.00,,,0.08,,2013-08-10 02:21:00,
2013-08-09 22:32:00,70.0,68.0,30.14,WSW,256,0.0,0.0,94,0.00,,,0.08,,2013-08-10 02:32:00,
2013-08-09 22:42:00,70.0,68.0,30.14,WSW,256,0.0,0.0,94,0.00,,,0.08,,2013-08-10 02:42:00,
2013-08-09 22:52:00,70.0,69.0,30.16,WSW,256,0.0,0.0,97,0.00,,,0.08,,2013-08-10 02:52:00,
2013-08-09 23:01:00,70.0,69.0,30.16,WSW,256,0.0,0.0,97,0.00,,,0.08,,2013-08-10 03:01:00,
2013-08-09 23:11:00,70.0,68.0,30.15,WSW,256,0.0,0.0,95,0.00,,,0.08,,2013-08-10 03:11:00,
2013-08-09 23:22:00,70.0,68.0,30.15,WSW,256,0.0,0.0,95,0.00,,,0.08,,2013-08-10 03:22:00,
2013-08-09 23:32:00,70.0,68.0,30.15,WSW,256,0.0,0.0,94,0.00,,,0.08,,2013-08-10 03:32:00,
2013-08-09 23:42:00,70.0,68.0,30.15,WSW,256,0.0,0.0,94,0.00,,,0.08,,2013-08-10 03:42:00,
2013-08-09 23:52:00,70.0,68.0,30.15,WSW,256,0.0,0.0,94,0.00,,,0.08,,2013-08-10 03:52:00,